Time;durP1;ratioP1;P1;durP2;ratioP2;P2;SDS_P1;SDS_P2;PMS_P1;PMS_P2;Temp;Humidity;BMP_temperature;BMP_pressure;BME280_temperature;BME280_humidity;BME280_pressure;Samples;Min_cycle;Max_cycle;Signal;HPM_P1;HPM_P2
2021/08/27 00:02:05;;;;;;;3.97;1.38;;;12.70;96.30;;;;;;4907574;29;20459;-81
2021/08/27 00:04:31;;;;;;;4.85;1.63;;;12.70;96.70;;;;;;4921097;28;20043;-83
2021/08/27 00:06:57;;;;;;;10.00;1.73;;;12.70;96.10;;;;;;4905988;29;20028;-84
2021/08/27 00:09:23;;;;;;;8.48;2.00;;;12.70;96.20;;;;;;4906023;28;20039;-84
2021/08/27 00:11:48;;;;;;;11.00;1.77;;;12.70;96.00;;;;;;4927079;29;20039;-84
2021/08/27 00:14:14;;;;;;;7.88;1.80;;;12.80;95.20;;;;;;4909076;28;20135;-83
2021/08/27 00:16:40;;;;;;;11.00;1.63;;;12.80;95.30;;;;;;4920927;28;20118;-84
2021/08/27 00:19:05;;;;;;;6.70;1.60;;;12.60;95.40;;;;;;4921228;28;20062;-84
2021/08/27 00:21:31;;;;;;;5.57;1.48;;;12.50;96.20;;;;;;4934005;28;20111;-83
2021/08/27 00:23:56;;;;;;;9.43;2.35;;;12.50;95.60;;;;;;4911388;29;20036;-83
2021/08/27 00:26:22;;;;;;;9.88;1.52;;;12.40;96.40;;;;;;4937848;28;20063;-84
2021/08/27 00:28:47;;;;;;;4.50;1.55;;;12.40;95.80;;;;;;4921836;28;20116;-84
2021/08/27 00:31:13;;;;;;;6.60;2.00;;;12.30;96.60;;;;;;4905110;28;20414;-83
2021/08/27 00:33:38;;;;;;;9.80;1.65;;;12.40;95.90;;;;;;4927651;28;20034;-84
2021/08/27 00:36:04;;;;;;;8.23;1.33;;;12.30;95.80;;;;;;4911087;29;20673;-85
2021/08/27 00:38:29;;;;;;;8.38;1.17;;;12.20;95.90;;;;;;4921630;28;20036;-84
2021/08/27 00:40:55;;;;;;;5.85;1.77;;;12.20;96.20;;;;;;4901800;29;20514;-83
2021/08/27 00:43:20;;;;;;;8.40;1.77;;;12.20;96.60;;;;;;4905421;28;20034;-84
2021/08/27 00:45:46;;;;;;;12.38;1.88;;;12.20;95.90;;;;;;4936877;28;20024;-84
2021/08/27 00:48:13;;;;;;;6.18;1.20;;;12.20;96.60;;;;;;4909659;29;20027;-84
2021/08/27 00:50:38;;;;;;;6.53;1.60;;;12.20;95.40;;;;;;4936632;28;20031;-84
2021/08/27 00:53:05;;;;;;;4.40;1.27;;;12.20;96.80;;;;;;4916915;28;20452;-84
2021/08/27 00:55:30;;;;;;;7.22;1.50;;;12.10;95.00;;;;;;4934750;28;20474;-84
2021/08/27 00:57:56;;;;;;;3.08;0.80;;;12.10;95.90;;;;;;4907401;29;20046;-83
2021/08/27 01:00:23;;;;;;;6.53;1.25;;;12.10;95.00;;;;;;4921825;28;20032;-83
2021/08/27 01:02:49;;;;;;;5.53;1.27;;;12.10;94.60;;;;;;4919680;28;20480;-83
2021/08/27 01:05:14;;;;;;;3.35;1.10;;;12.00;95.10;;;;;;4916730;28;20103;-83
2021/08/27 01:07:47;;;;;;;2.30;0.70;;;12.10;94.80;;;;;;4913602;28;20028;-83
2021/08/27 01:10:21;;;;;;;8.13;1.25;;;12.00;94.80;;;;;;4935543;28;20392;-83
2021/08/27 01:13:04;;;;;;;7.30;1.60;;;12.00;95.70;;;;;;4938983;28;20038;-83
2021/08/27 01:15:38;;;;;;;6.40;1.15;;;11.90;96.00;;;;;;4920812;28;20032;-83
2021/08/27 01:18:10;;;;;;;7.13;1.40;;;12.10;94.90;;;;;;4924060;28;20496;-82
2021/08/27 01:21:02;;;;;;;5.38;1.30;;;12.00;96.50;;;;;;4921200;28;20043;-82
2021/08/27 01:23:37;;;;;;;4.78;1.38;;;11.90;96.90;;;;;;4938610;28;20059;-82
2021/08/27 01:26:03;;;;;;;7.60;1.70;;;11.80;96.40;;;;;;4933157;28;20818;-83
2021/08/27 01:28:29;;;;;;;5.72;1.50;;;11.80;95.30;;;;;;4905579;28;20217;-82
2021/08/27 01:31:16;;;;;;;5.97;1.48;;;11.90;95.80;;;;;;4906975;29;20423;-83
2021/08/27 01:34:04;;;;;;;7.55;1.48;;;11.90;95.70;;;;;;4935612;28;20039;-83
2021/08/27 01:36:31;;;;;;;6.88;1.63;;;11.90;95.90;;;;;;4922073;28;20051;-81
2021/08/27 01:38:57;;;;;;;4.28;1.20;;;12.00;95.50;;;;;;4917953;28;20028;-82
2021/08/27 01:41:23;;;;;;;4.50;2.65;;;11.80;95.10;;;;;;4933653;28;20036;-83
2021/08/27 01:43:48;;;;;;;2.38;0.65;;;11.90;95.30;;;;;;4903980;29;20058;-81
2021/08/27 01:46:14;;;;;;;5.82;1.58;;;11.90;95.50;;;;;;4908074;29;20407;-82
2021/08/27 01:48:39;;;;;;;3.45;0.88;;;11.80;96.80;;;;;;4920435;28;20042;-82
2021/08/27 01:51:07;;;;;;;3.70;1.52;;;11.70;96.00;;;;;;4917406;28;20047;-82
2021/08/27 01:53:32;;;;;;;3.67;0.98;;;11.70;97.00;;;;;;4904137;28;20431;-82
2021/08/27 01:55:58;;;;;;;5.05;1.80;;;11.90;95.90;;;;;;4918086;28;20111;-82
2021/08/27 01:58:27;;;;;;;8.00;1.63;;;12.10;95.10;;;;;;4937071;28;20044;-83
2021/08/27 02:00:54;;;;;;;6.35;1.85;;;12.10;95.80;;;;;;4907700;29;20127;-81
2021/08/27 02:03:20;;;;;;;3.53;1.27;;;12.00;96.70;;;;;;4917189;28;20023;-80
2021/08/27 02:05:45;;;;;;;10.43;2.25;;;12.00;95.80;;;;;;4912040;28;20663;-82
2021/08/27 02:08:11;;;;;;;6.80;2.03;;;12.10;96.30;;;;;;4903013;28;20033;-82
2021/08/27 02:10:37;;;;;;;5.55;1.00;;;12.10;96.60;;;;;;4938334;28;20074;-82
2021/08/27 02:13:02;;;;;;;7.55;1.30;;;12.00;95.60;;;;;;4923434;28;20028;-82
2021/08/27 02:15:29;;;;;;;4.05;1.60;;;12.10;95.10;;;;;;4918936;28;20032;-82
2021/08/27 02:17:54;;;;;;;6.28;1.58;;;12.10;95.00;;;;;;4915351;28;20061;-82
2021/08/27 02:20:20;;;;;;;12.82;1.98;;;12.10;95.70;;;;;;4915559;28;20040;-82
2021/08/27 02:22:48;;;;;;;3.08;1.48;;;12.10;96.10;;;;;;4923557;29;20032;-82
2021/08/27 02:25:15;;;;;;;8.13;1.73;;;11.90;95.90;;;;;;4933916;28;20877;-83
2021/08/27 02:27:41;;;;;;;7.20;2.53;;;12.00;96.30;;;;;;4914314;28;20044;-82
2021/08/27 02:30:07;;;;;;;4.30;1.35;;;11.90;96.30;;;;;;4919242;28;20091;-82
2021/08/27 02:32:33;;;;;;;6.43;1.65;;;11.80;95.90;;;;;;4917429;28;20044;-82
2021/08/27 02:35:00;;;;;;;6.63;1.90;;;11.70;98.10;;;;;;4903903;29;20062;-82
2021/08/27 02:37:26;;;;;;;9.98;2.63;;;11.70;96.30;;;;;;4919646;28;20040;-82
2021/08/27 02:39:53;;;;;;;5.00;1.20;;;11.80;97.20;;;;;;4915320;28;20507;-83
2021/08/27 02:42:19;;;;;;;4.85;1.30;;;11.80;95.60;;;;;;4918281;28;20410;-82
2021/08/27 02:44:45;;;;;;;5.40;1.67;;;11.80;95.50;;;;;;4932436;28;20036;-82
2021/08/27 02:47:10;;;;;;;11.43;2.00;;;11.80;96.20;;;;;;4921880;28;20079;-82
2021/08/27 02:49:36;;;;;;;5.65;1.70;;;11.80;96.50;;;;;;4910580;29;20038;-83
2021/08/27 02:52:12;;;;;;;4.10;1.27;;;11.90;96.60;;;;;;4906495;29;20044;-83
2021/08/27 02:54:52;;;;;;;6.38;1.75;;;11.80;95.70;;;;;;4936025;28;20028;-81
2021/08/27 02:57:18;;;;;;;3.08;1.33;;;11.80;95.70;;;;;;4941843;28;20099;-83
2021/08/27 02:59:43;;;;;;;4.75;1.67;;;11.80;95.60;;;;;;4936991;28;20040;-81
2021/08/27 03:02:15;;;;;;;5.63;2.17;;;11.80;96.10;;;;;;4919773;28;20068;-82
2021/08/27 03:05:06;;;;;;;6.22;1.70;;;11.70;96.70;;;;;;4907771;29;20510;-82
2021/08/27 03:07:32;;;;;;;8.27;2.10;;;11.70;97.10;;;;;;4931994;28;20044;-82
2021/08/27 03:10:02;;;;;;;3.08;1.17;;;11.70;97.60;;;;;;4923142;28;20040;-82
2021/08/27 03:12:52;;;;;;;8.15;2.30;;;11.70;96.30;;;;;;4939146;28;20399;-82
2021/08/27 03:15:27;;;;;;;10.40;2.20;;;11.70;97.90;;;;;;4919077;28;20050;-81
2021/08/27 03:17:52;;;;;;;3.97;1.08;;;11.70;96.90;;;;;;4918761;28;20415;-82
2021/08/27 03:20:24;;;;;;;8.20;2.55;;;11.80;95.80;;;;;;4906659;28;20032;-81
2021/08/27 03:23:16;;;;;;;4.68;1.35;;;12.00;96.40;;;;;;4910809;28;20515;-80
2021/08/27 03:25:43;;;;;;;5.82;1.58;;;12.00;95.60;;;;;;4915535;29;20118;-79
2021/08/27 03:28:13;;;;;;;5.65;1.20;;;12.10;95.70;;;;;;4934480;28;20044;-81
2021/08/27 03:30:38;;;;;;;8.73;1.80;;;12.10;95.50;;;;;;4923491;28;20720;-81
2021/08/27 03:33:07;;;;;;;11.77;1.85;;;12.00;96.50;;;;;;4917952;28;20122;-80
2021/08/27 03:35:32;;;;;;;4.13;1.60;;;12.00;96.20;;;;;;4925832;28;20517;-80
2021/08/27 03:37:58;;;;;;;8.95;1.20;;;12.10;97.00;;;;;;4932968;28;20104;-81
2021/08/27 03:40:24;;;;;;;4.85;1.40;;;12.10;95.90;;;;;;4937035;28;20028;-81
2021/08/27 03:42:49;;;;;;;2.75;1.30;;;12.20;95.40;;;;;;4923394;28;20024;-82
2021/08/27 03:45:17;;;;;;;8.23;3.20;;;12.10;96.50;;;;;;4924611;28;20035;-81
2021/08/27 03:47:43;;;;;;;3.20;1.45;;;12.20;96.30;;;;;;4905406;29;20132;-81
2021/08/27 03:50:09;;;;;;;7.57;3.28;;;12.20;97.10;;;;;;4934829;28;20104;-81
2021/08/27 03:52:36;;;;;;;4.05;1.10;;;12.30;96.20;;;;;;4920216;28;20462;-81
2021/08/27 03:55:02;;;;;;;4.97;1.17;;;12.30;95.60;;;;;;4917790;28;20531;-81
2021/08/27 03:57:28;;;;;;;6.57;2.20;;;12.30;96.00;;;;;;4937799;28;20102;-80
2021/08/27 03:59:53;;;;;;;8.55;1.63;;;12.30;95.90;;;;;;4924116;28;20504;-81
2021/08/27 04:02:19;;;;;;;10.30;1.92;;;12.20;98.00;;;;;;4904053;28;20098;-81
2021/08/27 04:04:44;;;;;;;5.25;1.83;;;12.10;96.70;;;;;;4935244;28;20070;-81
2021/08/27 04:07:10;;;;;;;8.23;1.95;;;12.10;98.00;;;;;;4921338;28;20042;-80
2021/08/27 04:09:36;;;;;;;6.88;2.33;;;12.10;98.10;;;;;;4921400;28;20031;-83
2021/08/27 04:12:04;;;;;;;4.50;1.50;;;12.10;98.40;;;;;;4924122;28;20055;-81
2021/08/27 04:14:29;;;;;;;8.07;1.83;;;12.20;96.50;;;;;;4934339;28;20399;-81
2021/08/27 04:16:55;;;;;;;8.15;1.73;;;12.10;97.60;;;;;;4903979;29;20058;-81
2021/08/27 04:19:21;;;;;;;6.97;2.08;;;12.20;97.10;;;;;;4935820;28;20071;-81
2021/08/27 04:21:46;;;;;;;4.88;1.77;;;12.20;96.70;;;;;;4908608;28;20039;-81
2021/08/27 04:24:12;;;;;;;8.70;2.20;;;12.30;96.00;;;;;;4910150;29;20038;-81
2021/08/27 04:26:37;;;;;;;9.48;1.88;;;12.30;96.60;;;;;;4904181;28;20066;-81
2021/08/27 04:29:03;;;;;;;10.50;2.13;;;12.30;95.90;;;;;;4917488;28;20500;-81
2021/08/27 04:31:29;;;;;;;8.32;1.55;;;12.20;97.30;;;;;;4920449;28;20447;-81
2021/08/27 04:33:54;;;;;;;9.90;2.20;;;12.30;97.60;;;;;;4922769;28;20047;-82
2021/08/27 04:36:20;;;;;;;12.10;2.35;;;12.30;97.60;;;;;;4907052;28;20039;-82
2021/08/27 04:38:45;;;;;;;6.82;1.90;;;12.30;97.00;;;;;;4916433;28;20182;-80
2021/08/27 04:41:11;;;;;;;3.63;1.23;;;12.30;97.50;;;;;;4921465;28;20036;-81
2021/08/27 04:43:37;;;;;;;10.27;1.98;;;12.30;96.80;;;;;;4918281;28;20127;-81
2021/08/27 04:46:02;;;;;;;4.30;1.17;;;12.30;98.00;;;;;;4936983;28;20388;-82
2021/08/27 04:48:28;;;;;;;7.60;1.83;;;12.30;96.60;;;;;;4933611;28;20492;-83
2021/08/27 04:50:53;;;;;;;8.93;2.17;;;12.30;97.70;;;;;;4917032;28;20486;-82
2021/08/27 04:53:19;;;;;;;9.70;2.88;;;12.30;98.50;;;;;;4920365;28;20074;-83
2021/08/27 04:55:44;;;;;;;10.75;2.33;;;12.30;98.20;;;;;;4919040;28;20377;-84
2021/08/27 04:58:10;;;;;;;11.70;2.65;;;12.30;98.00;;;;;;4922271;28;20117;-82
2021/08/27 05:00:36;;;;;;;7.38;2.45;;;12.30;97.20;;;;;;4922298;28;20036;-81
2021/08/27 05:03:01;;;;;;;8.85;2.15;;;12.30;97.50;;;;;;4921023;28;20048;-83
2021/08/27 05:05:27;;;;;;;12.57;2.70;;;12.40;97.00;;;;;;4906917;28;20028;-83
2021/08/27 05:07:52;;;;;;;7.18;1.95;;;12.40;97.90;;;;;;4935507;28;20028;-83
2021/08/27 05:10:18;;;;;;;10.13;2.42;;;12.40;97.50;;;;;;4921034;28;20040;-82
2021/08/27 05:12:43;;;;;;;8.98;2.72;;;12.50;97.80;;;;;;4924751;29;20094;-83
2021/08/27 05:15:09;;;;;;;5.25;2.20;;;12.40;97.40;;;;;;4932976;28;20092;-84
2021/08/27 05:17:35;;;;;;;9.20;2.63;;;12.50;98.10;;;;;;4933651;28;20048;-83
2021/08/27 05:20:01;;;;;;;5.43;1.65;;;12.50;98.70;;;;;;4919667;28;20036;-85
2021/08/27 05:22:28;;;;;;;4.55;2.15;;;12.50;97.20;;;;;;4910219;28;20040;-87
2021/08/27 05:24:53;;;;;;;7.28;2.60;;;12.60;97.50;;;;;;4918669;28;20373;-86
2021/08/27 05:27:19;;;;;;;11.50;2.30;;;12.60;97.80;;;;;;4933935;28;20086;-87
2021/08/27 05:29:44;;;;;;;8.05;2.78;;;12.60;98.70;;;;;;4916864;28;20459;-86
2021/08/27 05:32:10;;;;;;;6.70;2.38;;;12.70;97.50;;;;;;4902365;28;20067;-85
2021/08/27 05:34:36;;;;;;;10.45;2.60;;;12.70;98.20;;;;;;4923943;28;20028;-86
2021/08/27 05:37:01;;;;;;;8.38;2.95;;;12.70;98.30;;;;;;4918908;28;20043;-86
2021/08/27 05:39:28;;;;;;;16.38;4.28;;;12.80;98.80;;;;;;4921029;28;20047;-85
2021/08/27 05:41:57;;;;;;;15.65;2.50;;;12.80;98.50;;;;;;4906458;29;20035;-86
2021/08/27 05:44:22;;;;;;;7.90;1.80;;;12.80;98.30;;;;;;4912897;29;20031;-87
2021/08/27 05:46:48;;;;;;;12.25;3.20;;;12.90;98.10;;;;;;4923606;28;20031;-84
2021/08/27 05:49:14;;;;;;;12.02;3.00;;;12.80;98.50;;;;;;4903754;29;20036;-86
2021/08/27 05:51:39;;;;;;;10.93;3.53;;;12.90;98.40;;;;;;4917846;28;20054;-87
2021/08/27 05:54:05;;;;;;;7.43;3.85;;;12.90;98.40;;;;;;4918509;28;20064;-86
2021/08/27 05:56:31;;;;;;;9.93;2.33;;;13.00;98.40;;;;;;4919412;28;20492;-85
2021/08/27 05:58:56;;;;;;;6.40;2.15;;;13.10;97.80;;;;;;4907730;28;20039;-84
2021/08/27 06:01:22;;;;;;;5.50;2.38;;;13.20;97.70;;;;;;4907580;28;20523;-84
2021/08/27 06:03:47;;;;;;;9.00;3.40;;;13.30;98.60;;;;;;4937056;28;20460;-83
2021/08/27 06:06:13;;;;;;;11.02;2.95;;;13.30;98.20;;;;;;4918530;28;20028;-85
2021/08/27 06:08:38;;;;;;;7.35;3.10;;;13.40;98.20;;;;;;4936019;28;20075;-84
2021/08/27 06:11:04;;;;;;;10.32;2.38;;;13.40;98.90;;;;;;4922956;28;20064;-83
2021/08/27 06:13:29;;;;;;;12.57;2.95;;;13.50;99.10;;;;;;4935111;28;20055;-82
2021/08/27 06:15:55;;;;;;;7.88;2.33;;;13.60;99.20;;;;;;4918254;28;20055;-83
2021/08/27 06:18:21;;;;;;;12.60;2.78;;;13.70;99.00;;;;;;4920911;28;20042;-84
2021/08/27 06:20:49;;;;;;;10.80;2.38;;;13.90;99.00;;;;;;4905235;29;20443;-83
2021/08/27 06:23:14;;;;;;;6.50;2.30;;;13.90;98.30;;;;;;4938300;28;20540;-81
2021/08/27 06:25:41;;;;;;;7.70;2.75;;;14.10;98.90;;;;;;4925690;28;20042;-83
2021/08/27 06:28:06;;;;;;;9.07;2.60;;;14.20;99.20;;;;;;4921342;28;20036;-82
2021/08/27 06:30:32;;;;;;;13.05;2.72;;;14.30;98.50;;;;;;4923913;28;20057;-83
2021/08/27 06:32:57;;;;;;;8.40;2.30;;;14.40;98.20;;;;;;4925549;28;20036;-83
2021/08/27 06:35:23;;;;;;;6.90;2.25;;;14.50;98.80;;;;;;4909183;28;20356;-83
2021/08/27 06:40:32;;;;;;;7.75;3.03;;;14.70;99.70;;;;;;4936575;28;20034;-84
2021/08/27 06:42:58;;;;;;;9.63;3.08;;;14.80;99.50;;;;;;4927948;28;20032;-83
2021/08/27 06:45:23;;;;;;;9.05;3.05;;;14.90;99.50;;;;;;4925700;28;20039;-83
2021/08/27 06:47:50;;;;;;;9.77;2.67;;;14.90;98.90;;;;;;4928425;28;20050;-83
2021/08/27 06:50:15;;;;;;;7.22;2.90;;;15.10;99.70;;;;;;4914391;29;20036;-83
2021/08/27 06:52:42;;;;;;;9.43;2.80;;;15.10;99.10;;;;;;4913445;28;20044;-83
2021/08/27 06:55:08;;;;;;;9.55;2.70;;;15.20;99.40;;;;;;4924759;28;20488;-84
2021/08/27 06:57:35;;;;;;;7.93;2.40;;;15.20;99.00;;;;;;4926752;28;20036;-85
2021/08/27 07:00:00;;;;;;;6.25;2.30;;;15.20;98.70;;;;;;4941279;28;20032;-84
2021/08/27 07:02:26;;;;;;;8.43;2.92;;;15.30;98.20;;;;;;4917399;28;20384;-84
2021/08/27 07:04:51;;;;;;;12.35;3.83;;;15.40;99.10;;;;;;4920138;28;20540;-84
2021/08/27 07:07:17;;;;;;;7.32;2.75;;;15.50;99.50;;;;;;4905366;29;20047;-84
2021/08/27 07:09:42;;;;;;;8.40;3.33;;;15.50;98.90;;;;;;4928609;28;20028;-85
2021/08/27 07:12:11;;;;;;;9.52;4.22;;;15.60;99.20;;;;;;4914161;28;20039;-84
2021/08/27 07:14:37;;;;;;;8.35;4.20;;;15.70;99.30;;;;;;4922527;28;20538;-84
2021/08/27 07:17:03;;;;;;;7.93;4.70;;;15.70;97.60;;;;;;4938153;28;20123;-83
2021/08/27 07:19:28;;;;;;;10.68;6.05;;;15.80;98.50;;;;;;4938092;28;20393;-83
2021/08/27 07:21:54;;;;;;;10.60;6.05;;;15.90;99.80;;;;;;4943088;28;20115;-84
2021/08/27 07:24:19;;;;;;;10.77;5.68;;;15.90;99.20;;;;;;4903255;29;20059;-83
2021/08/27 07:26:45;;;;;;;9.13;4.97;;;16.10;99.20;;;;;;4923248;28;20817;-83
2021/08/27 07:29:11;;;;;;;13.10;8.23;;;16.00;98.40;;;;;;4906589;28;20491;-83
2021/08/27 07:31:37;;;;;;;14.85;9.88;;;16.10;98.90;;;;;;4923889;28;20114;-84
2021/08/27 07:34:03;;;;;;;13.93;8.85;;;16.20;99.20;;;;;;4909004;28;20161;-84
2021/08/27 07:36:29;;;;;;;16.33;9.10;;;16.20;98.70;;;;;;4928901;28;20131;-84
2021/08/27 07:38:54;;;;;;;16.75;8.60;;;16.40;99.50;;;;;;4940560;28;20122;-83
2021/08/27 07:41:20;;;;;;;11.30;6.93;;;16.70;99.30;;;;;;4925697;28;20479;-84
2021/08/27 07:43:45;;;;;;;11.35;8.07;;;16.70;97.50;;;;;;4922742;28;20086;-84
2021/08/27 07:46:11;;;;;;;11.00;6.90;;;16.80;98.90;;;;;;4908315;29;20456;-84
2021/08/27 07:48:36;;;;;;;13.57;7.57;;;16.80;98.20;;;;;;4909553;28;20480;-84
2021/08/27 07:51:02;;;;;;;8.82;5.63;;;17.00;99.10;;;;;;4922345;28;20079;-84
2021/08/27 07:53:28;;;;;;;15.65;7.15;;;17.10;96.20;;;;;;4937446;28;20079;-83
2021/08/27 07:55:53;;;;;;;11.23;5.88;;;17.20;99.10;;;;;;4925266;28;20036;-83
2021/08/27 07:58:19;;;;;;;10.90;5.88;;;17.20;98.70;;;;;;4927617;29;20043;-84
2021/08/27 08:00:45;;;;;;;11.27;5.20;;;17.30;98.30;;;;;;4926333;28;20357;-84
2021/08/27 08:03:10;;;;;;;13.80;6.30;;;17.40;98.20;;;;;;4919114;28;20032;-84
2021/08/27 08:05:37;;;;;;;15.07;7.72;;;17.50;98.70;;;;;;4924666;28;20039;-85
2021/08/27 08:08:02;;;;;;;13.43;6.72;;;17.50;98.50;;;;;;4924466;28;20072;-84
2021/08/27 08:10:28;;;;;;;14.27;6.75;;;17.40;98.10;;;;;;4929482;28;20434;-84
2021/08/27 08:12:54;;;;;;;9.43;4.78;;;17.40;98.20;;;;;;4919602;28;20396;-84
2021/08/27 08:15:22;;;;;;;9.13;5.07;;;17.30;97.50;;;;;;4915417;29;20389;-84
2021/08/27 08:17:47;;;;;;;10.50;4.15;;;17.30;97.50;;;;;;4927360;28;20421;-85
2021/08/27 08:20:13;;;;;;;14.75;4.72;;;17.30;97.10;;;;;;4928548;28;20036;-84
2021/08/27 08:22:39;;;;;;;7.40;3.63;;;17.40;98.50;;;;;;4920194;28;20112;-84
2021/08/27 08:25:05;;;;;;;6.28;3.65;;;17.50;97.90;;;;;;4912792;29;20464;-84
2021/08/27 08:27:33;;;;;;;9.38;3.65;;;17.50;97.10;;;;;;4916110;28;20066;-84
2021/08/27 08:30:00;;;;;;;7.93;3.33;;;17.50;97.90;;;;;;4917057;28;20142;-84
2021/08/27 08:32:25;;;;;;;6.25;2.55;;;17.60;97.20;;;;;;4938469;28;20070;-84
2021/08/27 08:34:51;;;;;;;9.85;2.92;;;17.50;95.90;;;;;;4934472;28;20036;-84
2021/08/27 08:37:16;;;;;;;7.07;2.80;;;17.50;97.40;;;;;;4926205;28;20422;-84
2021/08/27 08:39:42;;;;;;;8.98;2.30;;;17.70;97.50;;;;;;4934222;28;20036;-85
2021/08/27 08:42:08;;;;;;;4.43;2.63;;;17.70;97.50;;;;;;4915732;28;20103;-84
2021/08/27 08:44:33;;;;;;;10.20;2.92;;;17.80;97.90;;;;;;4934530;28;20043;-84
2021/08/27 08:46:59;;;;;;;6.18;2.00;;;18.10;98.00;;;;;;4915168;29;20032;-84
2021/08/27 08:49:27;;;;;;;7.80;2.47;;;18.00;97.50;;;;;;4935126;28;20095;-82
2021/08/27 08:51:52;;;;;;;6.18;2.70;;;18.10;97.70;;;;;;4931248;28;20063;-84
2021/08/27 08:54:18;;;;;;;9.10;2.30;;;18.40;95.90;;;;;;4912811;29;20040;-84
2021/08/27 08:56:44;;;;;;;6.68;2.50;;;18.40;97.20;;;;;;4935590;28;20039;-84
2021/08/27 08:59:11;;;;;;;10.75;2.80;;;18.40;96.30;;;;;;4946893;28;20031;-84
2021/08/27 09:01:37;;;;;;;7.47;2.63;;;18.50;96.90;;;;;;4928326;28;20036;-84
2021/08/27 09:04:03;;;;;;;5.22;2.60;;;18.40;95.70;;;;;;4932838;28;20032;-84
2021/08/27 09:06:29;;;;;;;7.93;2.20;;;18.50;96.50;;;;;;4914794;28;20091;-84
2021/08/27 09:08:59;;;;;;;8.95;2.95;;;18.40;95.80;;;;;;4947204;28;20039;-83
2021/08/27 09:11:25;;;;;;;8.77;2.20;;;18.70;96.10;;;;;;4936739;28;20085;-84
2021/08/27 09:13:52;;;;;;;5.97;1.98;;;18.70;96.20;;;;;;4931827;28;20608;-85
2021/08/27 09:16:18;;;;;;;8.98;1.85;;;18.90;96.50;;;;;;4931946;28;20039;-84
2021/08/27 09:18:45;;;;;;;4.65;2.30;;;19.30;96.60;;;;;;4927343;28;20039;-84
2021/08/27 09:21:30;;;;;;;9.48;1.95;;;19.50;95.70;;;;;;4914839;28;20177;-85
2021/08/27 09:24:24;;;;;;;7.68;2.45;;;19.70;96.20;;;;;;4939111;28;20032;-84
2021/08/27 09:26:55;;;;;;;12.65;1.83;;;19.50;95.60;;;;;;4921853;29;20044;-85
2021/08/27 09:29:38;;;;;;;7.50;1.83;;;19.60;95.20;;;;;;4943887;28;20094;-86
2021/08/27 09:32:21;;;;;;;10.23;2.03;;;19.40;95.20;;;;;;4912843;28;20040;-85
2021/08/27 09:34:47;;;;;;;7.38;1.88;;;19.60;94.70;;;;;;4912660;28;20031;-85
2021/08/27 09:37:13;;;;;;;5.47;1.35;;;19.60;93.70;;;;;;4937990;28;20038;-85
2021/08/27 09:39:38;;;;;;;3.50;1.27;;;19.50;93.20;;;;;;4922373;28;20146;-86
2021/08/27 09:42:04;;;;;;;6.38;1.73;;;19.60;94.40;;;;;;4906685;29;20063;-87
2021/08/27 09:44:30;;;;;;;4.40;1.50;;;19.60;93.60;;;;;;4913511;28;20046;-87
2021/08/27 09:46:59;;;;;;;6.03;1.38;;;19.90;93.50;;;;;;4910305;29;20039;-86
2021/08/27 09:49:25;;;;;;;5.47;1.70;;;20.10;94.30;;;;;;4905947;29;20040;-84
2021/08/27 09:51:50;;;;;;;10.52;1.45;;;20.50;93.40;;;;;;4934946;28;20067;-86
2021/08/27 09:54:28;;;;;;;7.18;1.73;;;20.50;91.80;;;;;;4908740;28;20040;-87
2021/08/27 09:57:03;;;;;;;10.40;1.85;;;20.60;93.40;;;;;;4926099;29;20036;-87
2021/08/27 09:59:37;;;;;;;;;;;20.80;92.70;;;;;;4909446;28;20032;-87
2021/08/27 10:02:06;;;;;;;4.75;1.50;;;21.10;92.30;;;;;;4927032;28;19914;-86
2021/08/27 10:04:32;;;;;;;5.45;1.20;;;21.20;92.30;;;;;;4911326;29;20570;-86
2021/08/27 10:06:58;;;;;;;20.55;1.98;;;21.20;92.70;;;;;;4926392;28;20032;-83
2021/08/27 10:09:38;;;;;;;5.57;1.98;;;21.00;93.90;;;;;;4924152;28;20365;-83
2021/08/27 10:12:04;;;;;;;6.32;2.05;;;20.50;94.90;;;;;;4920071;28;20449;-84
2021/08/27 10:14:29;;;;;;;5.03;1.52;;;20.00;95.00;;;;;;4905622;28;20044;-84
2021/08/27 10:16:56;;;;;;;9.73;2.10;;;19.60;95.50;;;;;;4917926;29;20035;-84
2021/08/27 10:19:21;;;;;;;4.70;1.40;;;19.30;96.50;;;;;;4908225;28;20038;-85
2021/08/27 10:21:51;;;;;;;6.00;1.80;;;19.30;96.90;;;;;;4921451;28;20130;-85
2021/08/27 10:24:16;;;;;;;9.73;1.55;;;19.10;97.00;;;;;;4922913;28;20210;-85
2021/08/27 10:26:42;;;;;;;9.38;1.70;;;19.00;97.40;;;;;;4907016;28;20034;-86
2021/08/27 10:29:07;;;;;;;7.05;1.38;;;19.10;97.20;;;;;;4917993;28;20043;-85
2021/08/27 10:31:44;;;;;;;6.38;1.60;;;19.20;97.30;;;;;;4914313;28;20043;-86
2021/08/27 10:34:09;;;;;;;8.43;1.85;;;19.40;96.80;;;;;;4910107;28;20036;-86
2021/08/27 10:36:35;;;;;;;5.22;1.45;;;19.60;97.90;;;;;;4907369;29;20048;-86
2021/08/27 10:39:00;;;;;;;3.92;1.50;;;19.70;97.50;;;;;;4918699;28;20123;-85
2021/08/27 10:41:32;;;;;;;8.40;1.65;;;19.90;97.10;;;;;;4920772;28;20087;-85
2021/08/27 10:44:04;;;;;;;3.78;1.40;;;19.90;97.40;;;;;;4922283;28;20444;-85
2021/08/27 10:46:45;;;;;;;3.85;1.30;;;19.90;97.00;;;;;;4922783;28;20035;-86
2021/08/27 10:49:20;;;;;;;7.65;1.23;;;19.80;96.90;;;;;;4921476;28;20336;-85
2021/08/27 10:51:46;;;;;;;6.78;1.60;;;19.90;96.60;;;;;;4923996;28;20535;-85
2021/08/27 10:54:14;;;;;;;7.57;1.67;;;19.90;95.90;;;;;;4919482;28;20630;-87
2021/08/27 10:56:50;;;;;;;7.18;1.80;;;20.00;95.80;;;;;;4923808;28;20047;-84
2021/08/27 10:59:23;;;;;;;6.50;1.75;;;20.10;95.20;;;;;;4921830;28;20506;-87
2021/08/27 11:02:08;;;;;;;8.07;1.70;;;20.30;96.20;;;;;;4921481;28;20039;-86
2021/08/27 11:04:43;;;;;;;4.53;1.80;;;20.60;96.40;;;;;;4911033;28;20431;-86
2021/08/27 11:07:17;;;;;;;5.93;1.60;;;20.90;96.40;;;;;;4920048;28;20551;-86
2021/08/27 11:09:58;;;;;;;3.05;1.33;;;21.10;95.30;;;;;;4922178;28;20036;-88
2021/08/27 11:12:30;;;;;;;4.35;1.35;;;21.30;94.90;;;;;;4939959;28;20488;-88
2021/08/27 11:14:57;;;;;;;4.38;1.48;;;21.60;95.50;;;;;;4923354;29;20051;-88
2021/08/27 11:17:22;;;;;;;3.85;1.33;;;21.70;94.60;;;;;;4923765;28;20047;-89
2021/08/27 11:19:49;;;;;;;4.65;1.10;;;21.80;94.60;;;;;;4927821;28;20031;-88
2021/08/27 11:22:23;;;;;;;3.28;1.48;;;21.80;94.80;;;;;;4939509;28;20684;-87
2021/08/27 11:25:17;;;;;;;5.30;1.40;;;21.90;94.00;;;;;;4917519;28;20037;-88
2021/08/27 11:28:06;;;;;;;2.60;1.05;;;21.90;94.30;;;;;;4940222;28;20055;-87
2021/08/27 11:30:32;;;;;;;3.92;1.10;;;21.80;93.30;;;;;;4942338;28;20495;-86
2021/08/27 11:32:58;;;;;;;2.00;1.20;;;22.00;93.80;;;;;;4912868;29;20134;-88
2021/08/27 11:35:24;;;;;;;9.30;1.90;;;22.10;94.10;;;;;;4925556;28;20424;-88
2021/08/27 11:38:10;;;;;;;6.28;1.20;;;22.40;93.60;;;;;;4923280;28;20173;-87
2021/08/27 11:40:36;;;;;;;4.35;1.08;;;22.70;93.90;;;;;;4925687;28;20043;-89
2021/08/27 11:43:01;;;;;;;4.53;1.55;;;23.00;92.80;;;;;;4928508;28;20051;-89
2021/08/27 11:45:27;;;;;;;6.28;1.40;;;23.10;93.50;;;;;;4928695;28;20102;-89
2021/08/27 11:47:58;;;;;;;4.97;1.52;;;23.20;92.90;;;;;;4241797;28;9999909;-89
2021/08/27 11:50:38;;;;;;;7.20;1.33;;;23.30;93.20;;;;;;4938819;28;20052;-90
2021/08/27 11:53:04;;;;;;;4.68;1.10;;;23.50;92.10;;;;;;4910661;29;20039;-90
2021/08/27 11:55:29;;;;;;;3.70;1.25;;;23.70;90.70;;;;;;4906182;29;20035;-90
2021/08/27 11:57:56;;;;;;;2.25;1.13;;;23.90;90.40;;;;;;4926628;28;20439;-88
2021/08/27 12:00:34;;;;;;;4.78;1.40;;;23.90;91.10;;;;;;4924342;28;20103;-88
2021/08/27 12:03:02;;;;;;;4.65;1.08;;;24.10;91.00;;;;;;4942289;28;20092;-89
2021/08/27 12:05:27;;;;;;;2.28;0.93;;;24.30;88.10;;;;;;4946927;28;20439;-88
2021/08/27 12:08:00;;;;;;;6.70;0.90;;;24.40;89.30;;;;;;4916163;28;20039;-88
2021/08/27 12:10:28;;;;;;;6.57;1.10;;;24.40;84.30;;;;;;4910443;28;20119;-87
2021/08/27 12:12:54;;;;;;;8.23;1.98;;;24.40;87.90;;;;;;4919633;28;20051;-87
2021/08/27 12:15:24;;;;;;;4.43;0.80;;;24.40;85.40;;;;;;4909530;28;20043;-86
2021/08/27 12:18:05;;;;;;;4.22;1.40;;;24.30;87.10;;;;;;4942563;28;20032;-86
2021/08/27 12:20:40;;;;;;;3.80;0.95;;;24.10;85.00;;;;;;4929667;28;20554;-88
2021/08/27 12:23:14;;;;;;;6.27;1.10;;;23.90;88.40;;;;;;4925409;28;20032;-87
2021/08/27 12:25:42;;;;;;;4.10;1.30;;;23.70;89.40;;;;;;4913827;29;20032;-86
2021/08/27 12:28:09;;;;;;;5.20;1.30;;;23.50;90.50;;;;;;4924961;28;20043;-85
2021/08/27 12:30:34;;;;;;;6.32;1.17;;;23.40;91.10;;;;;;4931951;28;20123;-86
2021/08/27 12:33:02;;;;;;;5.10;1.35;;;23.10;91.20;;;;;;4910439;29;20122;-85
2021/08/27 12:35:32;;;;;;;4.82;1.35;;;22.80;91.50;;;;;;4933077;29;20044;-88
2021/08/27 12:37:58;;;;;;;3.92;1.20;;;22.60;92.10;;;;;;4924254;28;20442;-87
2021/08/27 12:40:25;;;;;;;2.72;1.50;;;22.40;91.80;;;;;;4908556;28;20492;-87
2021/08/27 12:43:02;;;;;;;3.88;1.63;;;22.20;92.40;;;;;;4910515;28;20036;-87
2021/08/27 12:45:39;;;;;;;7.57;1.40;;;22.20;92.30;;;;;;4924742;29;20055;-87
2021/08/27 12:48:05;;;;;;;3.10;1.20;;;22.20;92.30;;;;;;4911916;28;20031;-87
2021/08/27 12:50:30;;;;;;;6.25;1.48;;;22.20;92.10;;;;;;4910837;29;20054;-87
2021/08/27 12:53:04;;;;;;;5.38;1.45;;;22.20;92.70;;;;;;4910593;29;20044;-88